CheckWX is a tool to help pilots better visualize weather data.  It is not intended as a substitute for an official pre-flight weather briefing.

21:08:56 UTC

VTUD METAR
Udon Thani Airport
Udon Thani, Thailand
Current

5 hours ago

VTUD 171600Z 00000KT 9000 NSC 28/25 Q1009 NOSIG
Observed
Sep-17 @ 16:00 UTC
Visibility
9,000 meters
Flight Rules
VFR
Cloud Levels
  • Clear skies
Temperature
28°C / 82°F
Dewpoint
25°C / 77°F
Heat Index
32°C / 90°F
Humidity
84%
Altimeter
29.79" Hg
Pressure
1008.92 hPa
Previous

6 hours ago

VTUD 171500Z 25003KT CAVOK 29/25 Q1009 NOSIG
Observed
Sep-17 @ 15:00 UTC
Wind
  • 250° at 3 KTS
Visibility
10,000+ meters
Flight Rules
VFR
Cloud Levels
  • Clear skies
Temperature
29°C / 84°F
Dewpoint
25°C / 77°F
Heat Index
34°C / 94°F
Humidity
79%
Altimeter
29.79" Hg
Pressure
1008.92 hPa
Previous

7 hours ago

VTUD 171400Z 11003KT CAVOK 29/25 Q1008 NOSIG
Observed
Sep-17 @ 14:00 UTC
Wind
  • 110° at 3 KTS
Visibility
10,000+ meters
Flight Rules
VFR
Cloud Levels
  • Clear skies
Temperature
29°C / 84°F
Dewpoint
25°C / 77°F
Heat Index
34°C / 94°F
Humidity
79%
Altimeter
29.76" Hg
Pressure
1007.92 hPa